sensor_id;sensor_type;location;lat;lon;timestamp;temperature;humidity
15656;DHT22;7928;43.614;1.456;2024-01-27T00:02:22;9.70;99.90
15656;DHT22;7928;43.614;1.456;2024-01-27T00:04:49;9.60;99.90
15656;DHT22;7928;43.614;1.456;2024-01-27T00:07:18;9.70;99.90
15656;DHT22;7928;43.614;1.456;2024-01-27T00:09:45;9.80;99.90
15656;DHT22;7928;43.614;1.456;2024-01-27T00:12:12;9.70;99.90
15656;DHT22;7928;43.614;1.456;2024-01-27T00:14:39;9.70;99.90
15656;DHT22;7928;43.614;1.456;2024-01-27T00:17:06;9.70;99.90
15656;DHT22;7928;43.614;1.456;2024-01-27T00:19:33;9.70;99.90
15656;DHT22;7928;43.614;1.456;2024-01-27T00:22:00;9.70;99.90
15656;DHT22;7928;43.614;1.456;2024-01-27T00:24:29;9.60;99.90
15656;DHT22;7928;43.614;1.456;2024-01-27T00:26:56;9.60;99.90
15656;DHT22;7928;43.614;1.456;2024-01-27T00:29:23;9.70;99.90
15656;DHT22;7928;43.614;1.456;2024-01-27T00:31:50;9.60;99.90
15656;DHT22;7928;43.614;1.456;2024-01-27T00:34:16;9.60;99.90
15656;DHT22;7928;43.614;1.456;2024-01-27T00:36:44;9.50;99.90
15656;DHT22;7928;43.614;1.456;2024-01-27T00:39:14;9.50;99.90
15656;DHT22;7928;43.614;1.456;2024-01-27T00:41:42;9.60;99.90
15656;DHT22;7928;43.614;1.456;2024-01-27T00:44:09;9.70;99.90
15656;DHT22;7928;43.614;1.456;2024-01-27T00:46:36;9.70;99.90
15656;DHT22;7928;43.614;1.456;2024-01-27T00:49:04;9.70;99.90
15656;DHT22;7928;43.614;1.456;2024-01-27T00:51:31;9.60;99.90
15656;DHT22;7928;43.614;1.456;2024-01-27T00:53:58;9.60;99.90
15656;DHT22;7928;43.614;1.456;2024-01-27T00:56:25;9.60;99.90
15656;DHT22;7928;43.614;1.456;2024-01-27T00:58:53;9.70;99.90
15656;DHT22;7928;43.614;1.456;2024-01-27T01:01:20;9.70;99.90
15656;DHT22;7928;43.614;1.456;2024-01-27T01:03:47;9.60;99.90
15656;DHT22;7928;43.614;1.456;2024-01-27T01:06:14;9.60;99.90
15656;DHT22;7928;43.614;1.456;2024-01-27T01:08:41;9.60;99.90
15656;DHT22;7928;43.614;1.456;2024-01-27T01:11:08;9.60;99.90
15656;DHT22;7928;43.614;1.456;2024-01-27T01:13:35;9.70;99.90
15656;DHT22;7928;43.614;1.456;2024-01-27T01:16:04;9.70;99.90
15656;DHT22;7928;43.614;1.456;2024-01-27T01:18:31;9.70;99.90
15656;DHT22;7928;43.614;1.456;2024-01-27T01:20:58;9.70;99.90
15656;DHT22;7928;43.614;1.456;2024-01-27T01:23:25;9.70;99.90
15656;DHT22;7928;43.614;1.456;2024-01-27T01:25:52;9.60;99.90
15656;DHT22;7928;43.614;1.456;2024-01-27T01:28:19;9.60;99.90
15656;DHT22;7928;43.614;1.456;2024-01-27T01:30:46;9.60;99.90
15656;DHT22;7928;43.614;1.456;2024-01-27T01:33:14;9.70;99.90
15656;DHT22;7928;43.614;1.456;2024-01-27T01:35:41;9.70;99.90
15656;DHT22;7928;43.614;1.456;2024-01-27T01:38:08;9.70;99.90
15656;DHT22;7928;43.614;1.456;2024-01-27T01:40:35;9.70;99.90
15656;DHT22;7928;43.614;1.456;2024-01-27T01:43:02;9.70;99.90
15656;DHT22;7928;43.614;1.456;2024-01-27T01:45:30;9.70;99.90
15656;DHT22;7928;43.614;1.456;2024-01-27T01:47:57;9.70;99.90
15656;DHT22;7928;43.614;1.456;2024-01-27T01:50:25;9.70;99.90
15656;DHT22;7928;43.614;1.456;2024-01-27T01:52:53;9.50;99.90
15656;DHT22;7928;43.614;1.456;2024-01-27T01:55:20;9.50;99.90
15656;DHT22;7928;43.614;1.456;2024-01-27T01:57:48;9.50;99.90
15656;DHT22;7928;43.614;1.456;2024-01-27T02:00:16;9.50;99.90
15656;DHT22;7928;43.614;1.456;2024-01-27T02:02:43;9.30;99.90
15656;DHT22;7928;43.614;1.456;2024-01-27T02:05:11;9.40;99.90
15656;DHT22;7928;43.614;1.456;2024-01-27T02:07:40;9.50;99.90
15656;DHT22;7928;43.614;1.456;2024-01-27T02:10:13;9.50;99.90
15656;DHT22;7928;43.614;1.456;2024-01-27T02:12:41;9.50;99.90
15656;DHT22;7928;43.614;1.456;2024-01-27T02:15:10;9.50;99.90
15656;DHT22;7928;43.614;1.456;2024-01-27T02:17:38;9.50;99.90
15656;DHT22;7928;43.614;1.456;2024-01-27T02:20:06;9.40;99.90
15656;DHT22;7928;43.614;1.456;2024-01-27T02:22:33;9.50;99.90
15656;DHT22;7928;43.614;1.456;2024-01-27T02:25:02;9.30;99.90
15656;DHT22;7928;43.614;1.456;2024-01-27T02:27:30;9.30;99.90
15656;DHT22;7928;43.614;1.456;2024-01-27T02:29:57;9.30;99.90
15656;DHT22;7928;43.614;1.456;2024-01-27T02:32:24;9.30;99.90
15656;DHT22;7928;43.614;1.456;2024-01-27T02:34:51;9.30;99.90
15656;DHT22;7928;43.614;1.456;2024-01-27T02:37:18;9.40;99.90
15656;DHT22;7928;43.614;1.456;2024-01-27T02:39:45;9.60;99.90
15656;DHT22;7928;43.614;1.456;2024-01-27T02:42:14;9.40;99.90
15656;DHT22;7928;43.614;1.456;2024-01-27T02:44:40;9.40;99.90
15656;DHT22;7928;43.614;1.456;2024-01-27T02:47:08;9.40;99.90
15656;DHT22;7928;43.614;1.456;2024-01-27T02:49:33;9.40;99.90
15656;DHT22;7928;43.614;1.456;2024-01-27T02:52:00;9.40;99.90
15656;DHT22;7928;43.614;1.456;2024-01-27T02:54:27;9.40;99.90
15656;DHT22;7928;43.614;1.456;2024-01-27T02:56:54;9.40;99.90
15656;DHT22;7928;43.614;1.456;2024-01-27T02:59:23;9.40;99.90
15656;DHT22;7928;43.614;1.456;2024-01-27T03:01:49;9.40;99.90
15656;DHT22;7928;43.614;1.456;2024-01-27T03:04:16;9.30;99.90
15656;DHT22;7928;43.614;1.456;2024-01-27T03:06:44;9.40;99.90
15656;DHT22;7928;43.614;1.456;2024-01-27T03:09:10;9.30;99.90
15656;DHT22;7928;43.614;1.456;2024-01-27T03:11:38;9.30;99.90
15656;DHT22;7928;43.614;1.456;2024-01-27T03:14:05;9.30;99.90
15656;DHT22;7928;43.614;1.456;2024-01-27T03:16:33;9.30;99.90
15656;DHT22;7928;43.614;1.456;2024-01-27T03:19:01;9.30;99.90
15656;DHT22;7928;43.614;1.456;2024-01-27T03:21:29;9.30;99.90
15656;DHT22;7928;43.614;1.456;2024-01-27T03:23:56;9.30;99.90
15656;DHT22;7928;43.614;1.456;2024-01-27T03:26:23;9.30;99.90
15656;DHT22;7928;43.614;1.456;2024-01-27T03:28:50;9.30;99.90
15656;DHT22;7928;43.614;1.456;2024-01-27T03:31:17;9.30;99.90
15656;DHT22;7928;43.614;1.456;2024-01-27T03:33:45;9.30;99.90
15656;DHT22;7928;43.614;1.456;2024-01-27T03:36:13;9.30;99.90
15656;DHT22;7928;43.614;1.456;2024-01-27T03:38:40;9.30;99.90
15656;DHT22;7928;43.614;1.456;2024-01-27T03:41:07;9.30;99.90
15656;DHT22;7928;43.614;1.456;2024-01-27T03:43:34;9.30;99.90
15656;DHT22;7928;43.614;1.456;2024-01-27T03:46:01;9.30;99.90
15656;DHT22;7928;43.614;1.456;2024-01-27T03:48:29;9.30;99.90
15656;DHT22;7928;43.614;1.456;2024-01-27T03:50:57;9.30;99.90
15656;DHT22;7928;43.614;1.456;2024-01-27T03:53:24;9.30;99.90
15656;DHT22;7928;43.614;1.456;2024-01-27T03:55:51;9.20;99.90
15656;DHT22;7928;43.614;1.456;2024-01-27T03:58:18;9.20;99.90
15656;DHT22;7928;43.614;1.456;2024-01-27T04:00:45;9.20;99.90
15656;DHT22;7928;43.614;1.456;2024-01-27T04:03:12;9.10;99.90
15656;DHT22;7928;43.614;1.456;2024-01-27T04:05:39;9.20;99.90
15656;DHT22;7928;43.614;1.456;2024-01-27T04:08:08;9.10;99.90
15656;DHT22;7928;43.614;1.456;2024-01-27T04:10:36;9.20;99.90
15656;DHT22;7928;43.614;1.456;2024-01-27T04:13:04;9.20;99.90
15656;DHT22;7928;43.614;1.456;2024-01-27T04:15:33;9.10;99.90
15656;DHT22;7928;43.614;1.456;2024-01-27T04:18:04;9.00;99.90
15656;DHT22;7928;43.614;1.456;2024-01-27T04:20:31;8.90;99.90
15656;DHT22;7928;43.614;1.456;2024-01-27T04:22:58;8.90;99.90
15656;DHT22;7928;43.614;1.456;2024-01-27T04:25:26;9.00;99.90
15656;DHT22;7928;43.614;1.456;2024-01-27T04:27:53;9.00;99.90
15656;DHT22;7928;43.614;1.456;2024-01-27T04:30:20;9.10;99.90
15656;DHT22;7928;43.614;1.456;2024-01-27T04:32:48;9.00;99.90
15656;DHT22;7928;43.614;1.456;2024-01-27T04:35:17;9.00;99.90
15656;DHT22;7928;43.614;1.456;2024-01-27T04:37:43;9.00;99.90
15656;DHT22;7928;43.614;1.456;2024-01-27T04:40:11;9.00;99.90
15656;DHT22;7928;43.614;1.456;2024-01-27T04:42:40;9.00;99.90
15656;DHT22;7928;43.614;1.456;2024-01-27T04:45:07;9.00;99.90
15656;DHT22;7928;43.614;1.456;2024-01-27T04:47:35;9.00;99.90
15656;DHT22;7928;43.614;1.456;2024-01-27T04:50:02;9.00;99.90
15656;DHT22;7928;43.614;1.456;2024-01-27T04:52:29;8.90;99.90
15656;DHT22;7928;43.614;1.456;2024-01-27T04:54:56;8.90;99.90
15656;DHT22;7928;43.614;1.456;2024-01-27T04:57:24;8.90;99.90
15656;DHT22;7928;43.614;1.456;2024-01-27T04:59:52;8.90;99.90
15656;DHT22;7928;43.614;1.456;2024-01-27T05:02:19;8.80;99.90
15656;DHT22;7928;43.614;1.456;2024-01-27T05:04:46;8.80;99.90
15656;DHT22;7928;43.614;1.456;2024-01-27T05:07:13;8.80;99.90
15656;DHT22;7928;43.614;1.456;2024-01-27T05:09:40;8.70;99.90
15656;DHT22;7928;43.614;1.456;2024-01-27T05:12:07;8.70;99.90
15656;DHT22;7928;43.614;1.456;2024-01-27T05:14:34;8.80;99.90
15656;DHT22;7928;43.614;1.456;2024-01-27T05:17:03;8.80;99.90
15656;DHT22;7928;43.614;1.456;2024-01-27T05:19:30;8.80;99.90
15656;DHT22;7928;43.614;1.456;2024-01-27T05:21:57;8.70;99.90
15656;DHT22;7928;43.614;1.456;2024-01-27T05:24:24;8.70;99.90
15656;DHT22;7928;43.614;1.456;2024-01-27T05:26:51;8.70;99.90
15656;DHT22;7928;43.614;1.456;2024-01-27T05:29:18;8.70;99.90
15656;DHT22;7928;43.614;1.456;2024-01-27T05:31:45;8.70;99.90
15656;DHT22;7928;43.614;1.456;2024-01-27T05:34:13;8.60;99.90
15656;DHT22;7928;43.614;1.456;2024-01-27T05:36:40;8.50;99.90
15656;DHT22;7928;43.614;1.456;2024-01-27T05:39:08;8.40;99.90
15656;DHT22;7928;43.614;1.456;2024-01-27T05:41:35;8.50;99.90
15656;DHT22;7928;43.614;1.456;2024-01-27T05:44:02;8.50;99.90
15656;DHT22;7928;43.614;1.456;2024-01-27T05:46:29;8.50;99.90
15656;DHT22;7928;43.614;1.456;2024-01-27T05:48:56;8.40;99.90
15656;DHT22;7928;43.614;1.456;2024-01-27T05:51:28;8.40;99.90
15656;DHT22;7928;43.614;1.456;2024-01-27T05:53:56;8.30;99.90
15656;DHT22;7928;43.614;1.456;2024-01-27T05:56:23;8.40;99.90
15656;DHT22;7928;43.614;1.456;2024-01-27T05:58:50;8.40;99.90
15656;DHT22;7928;43.614;1.456;2024-01-27T06:01:17;8.40;99.90
15656;DHT22;7928;43.614;1.456;2024-01-27T06:03:45;8.50;99.90
15656;DHT22;7928;43.614;1.456;2024-01-27T06:06:12;8.40;99.90
15656;DHT22;7928;43.614;1.456;2024-01-27T06:08:41;8.30;99.90
15656;DHT22;7928;43.614;1.456;2024-01-27T06:11:08;8.30;99.90
15656;DHT22;7928;43.614;1.456;2024-01-27T06:13:35;8.20;99.90
15656;DHT22;7928;43.614;1.456;2024-01-27T06:16:06;8.10;99.90
15656;DHT22;7928;43.614;1.456;2024-01-27T06:18:34;8.00;99.90
15656;DHT22;7928;43.614;1.456;2024-01-27T06:21:04;8.00;99.90
15656;DHT22;7928;43.614;1.456;2024-01-27T06:23:31;8.10;99.90
15656;DHT22;7928;43.614;1.456;2024-01-27T06:25:59;8.00;99.90
15656;DHT22;7928;43.614;1.456;2024-01-27T06:28:30;8.10;99.90
15656;DHT22;7928;43.614;1.456;2024-01-27T06:30:57;8.10;99.90
15656;DHT22;7928;43.614;1.456;2024-01-27T06:33:24;8.10;99.90
15656;DHT22;7928;43.614;1.456;2024-01-27T06:35:51;8.00;99.90
15656;DHT22;7928;43.614;1.456;2024-01-27T06:38:18;8.00;99.90
15656;DHT22;7928;43.614;1.456;2024-01-27T06:40:45;7.80;99.90
15656;DHT22;7928;43.614;1.456;2024-01-27T06:43:14;7.90;99.90
15656;DHT22;7928;43.614;1.456;2024-01-27T06:45:41;7.90;99.90
15656;DHT22;7928;43.614;1.456;2024-01-27T06:48:08;7.90;99.90
15656;DHT22;7928;43.614;1.456;2024-01-27T06:50:35;7.80;99.90
15656;DHT22;7928;43.614;1.456;2024-01-27T06:53:02;7.90;99.90
15656;DHT22;7928;43.614;1.456;2024-01-27T06:55:29;8.00;99.90
15656;DHT22;7928;43.614;1.456;2024-01-27T06:57:56;8.10;99.90
15656;DHT22;7928;43.614;1.456;2024-01-27T07:00:24;8.10;99.90
15656;DHT22;7928;43.614;1.456;2024-01-27T07:02:51;8.00;99.90
15656;DHT22;7928;43.614;1.456;2024-01-27T07:05:18;8.00;99.90
15656;DHT22;7928;43.614;1.456;2024-01-27T07:07:46;8.00;99.90
15656;DHT22;7928;43.614;1.456;2024-01-27T07:10:14;8.00;99.90
15656;DHT22;7928;43.614;1.456;2024-01-27T07:12:41;8.00;99.90
15656;DHT22;7928;43.614;1.456;2024-01-27T07:15:08;7.90;99.90
15656;DHT22;7928;43.614;1.456;2024-01-27T07:17:36;7.90;99.90
15656;DHT22;7928;43.614;1.456;2024-01-27T07:20:04;7.90;99.90
15656;DHT22;7928;43.614;1.456;2024-01-27T07:22:32;8.00;99.90
15656;DHT22;7928;43.614;1.456;2024-01-27T07:24:59;7.90;99.90
15656;DHT22;7928;43.614;1.456;2024-01-27T07:27:26;7.90;99.90
15656;DHT22;7928;43.614;1.456;2024-01-27T07:29:53;7.90;99.90
15656;DHT22;7928;43.614;1.456;2024-01-27T07:32:20;7.80;99.90
15656;DHT22;7928;43.614;1.456;2024-01-27T07:34:49;7.90;99.90
15656;DHT22;7928;43.614;1.456;2024-01-27T07:37:16;8.00;99.90
15656;DHT22;7928;43.614;1.456;2024-01-27T07:39:43;8.00;99.90
15656;DHT22;7928;43.614;1.456;2024-01-27T07:42:10;8.00;99.90
15656;DHT22;7928;43.614;1.456;2024-01-27T07:44:37;7.70;99.90
15656;DHT22;7928;43.614;1.456;2024-01-27T07:47:04;7.70;99.90
15656;DHT22;7928;43.614;1.456;2024-01-27T07:49:31;7.90;99.90
15656;DHT22;7928;43.614;1.456;2024-01-27T07:51:59;7.90;99.90
15656;DHT22;7928;43.614;1.456;2024-01-27T07:54:26;8.00;99.90
15656;DHT22;7928;43.614;1.456;2024-01-27T07:56:53;7.80;99.90
15656;DHT22;7928;43.614;1.456;2024-01-27T07:59:20;7.90;99.90
15656;DHT22;7928;43.614;1.456;2024-01-27T08:01:47;8.00;99.90
15656;DHT22;7928;43.614;1.456;2024-01-27T08:04:14;8.10;99.90
15656;DHT22;7928;43.614;1.456;2024-01-27T08:06:49;7.90;99.90
15656;DHT22;7928;43.614;1.456;2024-01-27T08:09:18;7.90;99.90
15656;DHT22;7928;43.614;1.456;2024-01-27T08:11:45;7.90;99.90
15656;DHT22;7928;43.614;1.456;2024-01-27T08:14:17;7.90;99.90
15656;DHT22;7928;43.614;1.456;2024-01-27T08:16:44;8.10;99.90
15656;DHT22;7928;43.614;1.456;2024-01-27T08:19:11;8.10;99.90
15656;DHT22;7928;43.614;1.456;2024-01-27T08:21:38;8.10;99.90
15656;DHT22;7928;43.614;1.456;2024-01-27T08:24:05;8.10;99.90
15656;DHT22;7928;43.614;1.456;2024-01-27T08:26:33;8.20;99.90
15656;DHT22;7928;43.614;1.456;2024-01-27T08:29:00;8.20;99.90
15656;DHT22;7928;43.614;1.456;2024-01-27T08:31:27;8.30;99.90
15656;DHT22;7928;43.614;1.456;2024-01-27T08:33:54;8.30;99.90
15656;DHT22;7928;43.614;1.456;2024-01-27T08:36:21;8.40;99.90
15656;DHT22;7928;43.614;1.456;2024-01-27T08:38:48;8.40;99.90
15656;DHT22;7928;43.614;1.456;2024-01-27T08:41:15;8.40;99.90
15656;DHT22;7928;43.614;1.456;2024-01-27T08:43:43;8.30;99.90
15656;DHT22;7928;43.614;1.456;2024-01-27T08:46:10;8.30;99.90
15656;DHT22;7928;43.614;1.456;2024-01-27T08:48:39;8.40;99.90
15656;DHT22;7928;43.614;1.456;2024-01-27T08:51:08;8.40;99.90
15656;DHT22;7928;43.614;1.456;2024-01-27T08:53:35;8.40;99.90
15656;DHT22;7928;43.614;1.456;2024-01-27T08:56:03;8.30;99.90
15656;DHT22;7928;43.614;1.456;2024-01-27T08:58:31;8.40;99.90
15656;DHT22;7928;43.614;1.456;2024-01-27T09:00:59;8.40;99.90
15656;DHT22;7928;43.614;1.456;2024-01-27T09:03:31;8.50;99.90
15656;DHT22;7928;43.614;1.456;2024-01-27T09:05:57;8.60;99.90
15656;DHT22;7928;43.614;1.456;2024-01-27T09:08:24;8.70;99.90
15656;DHT22;7928;43.614;1.456;2024-01-27T09:10:51;8.70;99.90
15656;DHT22;7928;43.614;1.456;2024-01-27T09:13:18;8.70;99.90
15656;DHT22;7928;43.614;1.456;2024-01-27T09:15:45;8.70;99.90
15656;DHT22;7928;43.614;1.456;2024-01-27T09:18:15;8.70;99.90
15656;DHT22;7928;43.614;1.456;2024-01-27T09:20:42;8.80;99.90
15656;DHT22;7928;43.614;1.456;2024-01-27T09:23:09;8.80;99.90
15656;DHT22;7928;43.614;1.456;2024-01-27T09:25:37;8.80;99.90
15656;DHT22;7928;43.614;1.456;2024-01-27T09:28:05;8.90;99.90
15656;DHT22;7928;43.614;1.456;2024-01-27T09:30:32;8.90;99.90
15656;DHT22;7928;43.614;1.456;2024-01-27T09:32:58;8.90;99.90
15656;DHT22;7928;43.614;1.456;2024-01-27T09:35:27;9.00;99.90
15656;DHT22;7928;43.614;1.456;2024-01-27T09:37:54;9.10;99.90
15656;DHT22;7928;43.614;1.456;2024-01-27T09:40:21;9.10;99.90
15656;DHT22;7928;43.614;1.456;2024-01-27T09:42:51;9.20;99.90
15656;DHT22;7928;43.614;1.456;2024-01-27T09:45:19;9.30;99.90
15656;DHT22;7928;43.614;1.456;2024-01-27T09:47:48;9.30;99.90
15656;DHT22;7928;43.614;1.456;2024-01-27T09:50:17;9.40;99.90
15656;DHT22;7928;43.614;1.456;2024-01-27T09:52:46;9.20;99.90
15656;DHT22;7928;43.614;1.456;2024-01-27T09:55:13;9.10;99.90
15656;DHT22;7928;43.614;1.456;2024-01-27T09:57:40;9.00;99.90
15656;DHT22;7928;43.614;1.456;2024-01-27T10:00:10;9.10;99.90
15656;DHT22;7928;43.614;1.456;2024-01-27T10:02:39;9.20;99.90
15656;DHT22;7928;43.614;1.456;2024-01-27T10:05:08;9.30;99.90
15656;DHT22;7928;43.614;1.456;2024-01-27T10:07:35;9.30;99.90
15656;DHT22;7928;43.614;1.456;2024-01-27T10:10:05;9.20;99.90
15656;DHT22;7928;43.614;1.456;2024-01-27T10:12:33;9.40;99.90
15656;DHT22;7928;43.614;1.456;2024-01-27T10:15:05;9.40;99.90
15656;DHT22;7928;43.614;1.456;2024-01-27T10:17:32;9.40;99.90
15656;DHT22;7928;43.614;1.456;2024-01-27T10:20:03;9.30;99.90
15656;DHT22;7928;43.614;1.456;2024-01-27T10:22:37;9.40;99.90
15656;DHT22;7928;43.614;1.456;2024-01-27T10:25:07;9.70;99.90
15656;DHT22;7928;43.614;1.456;2024-01-27T10:27:35;9.70;99.90
15656;DHT22;7928;43.614;1.456;2024-01-27T10:30:02;9.80;99.90
15656;DHT22;7928;43.614;1.456;2024-01-27T10:32:30;9.70;99.90
15656;DHT22;7928;43.614;1.456;2024-01-27T10:35:04;9.60;99.90
15656;DHT22;7928;43.614;1.456;2024-01-27T10:37:31;9.40;99.90
15656;DHT22;7928;43.614;1.456;2024-01-27T10:40:02;9.40;99.90
15656;DHT22;7928;43.614;1.456;2024-01-27T10:42:31;9.50;99.90
15656;DHT22;7928;43.614;1.456;2024-01-27T10:44:58;9.50;99.90
15656;DHT22;7928;43.614;1.456;2024-01-27T10:47:27;9.70;99.90
15656;DHT22;7928;43.614;1.456;2024-01-27T10:49:56;9.80;99.90
15656;DHT22;7928;43.614;1.456;2024-01-27T10:52:24;9.90;99.90
15656;DHT22;7928;43.614;1.456;2024-01-27T10:54:58;9.70;99.90
15656;DHT22;7928;43.614;1.456;2024-01-27T10:57:26;9.60;99.90
15656;DHT22;7928;43.614;1.456;2024-01-27T10:59:56;9.70;99.90
15656;DHT22;7928;43.614;1.456;2024-01-27T11:02:23;9.80;99.90
15656;DHT22;7928;43.614;1.456;2024-01-27T11:04:51;10.00;99.90
15656;DHT22;7928;43.614;1.456;2024-01-27T11:07:19;10.00;99.90
15656;DHT22;7928;43.614;1.456;2024-01-27T11:09:49;10.00;99.90
15656;DHT22;7928;43.614;1.456;2024-01-27T11:12:18;10.00;99.90
15656;DHT22;7928;43.614;1.456;2024-01-27T11:14:46;10.10;99.90
15656;DHT22;7928;43.614;1.456;2024-01-27T11:17:15;10.20;99.90
15656;DHT22;7928;43.614;1.456;2024-01-27T11:19:42;10.10;99.90
15656;DHT22;7928;43.614;1.456;2024-01-27T11:22:23;10.20;99.90
15656;DHT22;7928;43.614;1.456;2024-01-27T11:24:51;10.10;99.90
15656;DHT22;7928;43.614;1.456;2024-01-27T11:27:18;10.30;99.90
15656;DHT22;7928;43.614;1.456;2024-01-27T11:29:54;10.40;99.90
15656;DHT22;7928;43.614;1.456;2024-01-27T11:32:22;10.60;99.90
15656;DHT22;7928;43.614;1.456;2024-01-27T11:34:50;10.70;99.90
15656;DHT22;7928;43.614;1.456;2024-01-27T11:37:17;10.80;99.90
15656;DHT22;7928;43.614;1.456;2024-01-27T11:39:49;10.90;99.90
15656;DHT22;7928;43.614;1.456;2024-01-27T11:42:16;10.90;99.90
15656;DHT22;7928;43.614;1.456;2024-01-27T11:44:43;10.90;99.90
15656;DHT22;7928;43.614;1.456;2024-01-27T11:47:15;11.10;99.90
15656;DHT22;7928;43.614;1.456;2024-01-27T11:49:43;11.10;99.90
15656;DHT22;7928;43.614;1.456;2024-01-27T11:52:11;11.00;99.90
15656;DHT22;7928;43.614;1.456;2024-01-27T11:54:38;10.90;99.90
15656;DHT22;7928;43.614;1.456;2024-01-27T11:57:05;11.00;99.90
15656;DHT22;7928;43.614;1.456;2024-01-27T11:59:33;11.00;99.90
15656;DHT22;7928;43.614;1.456;2024-01-27T12:02:01;11.10;99.90
15656;DHT22;7928;43.614;1.456;2024-01-27T12:04:28;11.30;99.90
15656;DHT22;7928;43.614;1.456;2024-01-27T12:06:57;11.20;99.90
15656;DHT22;7928;43.614;1.456;2024-01-27T12:09:24;11.30;99.90
15656;DHT22;7928;43.614;1.456;2024-01-27T12:11:51;11.10;99.90
15656;DHT22;7928;43.614;1.456;2024-01-27T12:14:19;11.30;99.90
15656;DHT22;7928;43.614;1.456;2024-01-27T12:16:46;11.50;99.90
15656;DHT22;7928;43.614;1.456;2024-01-27T12:19:13;11.80;99.90
15656;DHT22;7928;43.614;1.456;2024-01-27T12:21:47;11.70;99.90
15656;DHT22;7928;43.614;1.456;2024-01-27T12:24:17;11.90;99.90
15656;DHT22;7928;43.614;1.456;2024-01-27T12:26:45;12.00;99.90
15656;DHT22;7928;43.614;1.456;2024-01-27T12:29:12;12.10;99.90
15656;DHT22;7928;43.614;1.456;2024-01-27T12:31:39;12.30;99.90
15656;DHT22;7928;43.614;1.456;2024-01-27T12:34:07;12.40;99.90
15656;DHT22;7928;43.614;1.456;2024-01-27T12:36:39;12.40;99.90
15656;DHT22;7928;43.614;1.456;2024-01-27T12:39:06;12.40;99.90
15656;DHT22;7928;43.614;1.456;2024-01-27T12:41:35;12.20;99.90
15656;DHT22;7928;43.614;1.456;2024-01-27T12:44:03;12.00;99.90
15656;DHT22;7928;43.614;1.456;2024-01-27T12:46:30;12.00;99.90
15656;DHT22;7928;43.614;1.456;2024-01-27T12:48:57;12.10;99.90
15656;DHT22;7928;43.614;1.456;2024-01-27T12:51:24;12.30;99.90
15656;DHT22;7928;43.614;1.456;2024-01-27T12:53:51;12.40;99.90
15656;DHT22;7928;43.614;1.456;2024-01-27T12:56:18;12.50;99.90
15656;DHT22;7928;43.614;1.456;2024-01-27T12:58:47;12.50;99.90
15656;DHT22;7928;43.614;1.456;2024-01-27T13:01:14;12.50;99.90
15656;DHT22;7928;43.614;1.456;2024-01-27T13:03:41;12.60;99.90
15656;DHT22;7928;43.614;1.456;2024-01-27T13:06:08;12.90;99.90
15656;DHT22;7928;43.614;1.456;2024-01-27T13:08:36;13.30;99.90
15656;DHT22;7928;43.614;1.456;2024-01-27T13:11:03;13.70;99.90
15656;DHT22;7928;43.614;1.456;2024-01-27T13:13:30;14.00;99.90
15656;DHT22;7928;43.614;1.456;2024-01-27T13:15:58;14.40;99.90
15656;DHT22;7928;43.614;1.456;2024-01-27T13:18:26;14.50;99.90
15656;DHT22;7928;43.614;1.456;2024-01-27T13:20:53;15.10;99.90
15656;DHT22;7928;43.614;1.456;2024-01-27T13:23:20;17.20;99.90
15656;DHT22;7928;43.614;1.456;2024-01-27T13:25:46;17.40;99.90
15656;DHT22;7928;43.614;1.456;2024-01-27T13:28:13;17.10;99.90
15656;DHT22;7928;43.614;1.456;2024-01-27T13:30:40;16.80;99.90
15656;DHT22;7928;43.614;1.456;2024-01-27T13:33:09;17.10;99.90
15656;DHT22;7928;43.614;1.456;2024-01-27T13:35:37;18.90;99.90
15656;DHT22;7928;43.614;1.456;2024-01-27T13:38:08;20.90;99.90
15656;DHT22;7928;43.614;1.456;2024-01-27T13:40:35;22.20;99.90
15656;DHT22;7928;43.614;1.456;2024-01-27T13:43:02;22.80;99.90
15656;DHT22;7928;43.614;1.456;2024-01-27T13:45:29;22.70;99.90
15656;DHT22;7928;43.614;1.456;2024-01-27T13:47:57;23.80;99.90
15656;DHT22;7928;43.614;1.456;2024-01-27T13:50:25;24.00;99.90
15656;DHT22;7928;43.614;1.456;2024-01-27T13:52:53;24.00;99.90
15656;DHT22;7928;43.614;1.456;2024-01-27T13:55:20;25.00;99.90
15656;DHT22;7928;43.614;1.456;2024-01-27T13:57:48;24.20;99.90
15656;DHT22;7928;43.614;1.456;2024-01-27T14:00:16;22.70;99.90
15656;DHT22;7928;43.614;1.456;2024-01-27T14:02:43;23.50;99.90
15656;DHT22;7928;43.614;1.456;2024-01-27T14:05:10;24.50;99.90
15656;DHT22;7928;43.614;1.456;2024-01-27T14:07:38;25.00;99.90
15656;DHT22;7928;43.614;1.456;2024-01-27T14:10:06;24.50;99.90
15656;DHT22;7928;43.614;1.456;2024-01-27T14:12:34;23.60;99.90
15656;DHT22;7928;43.614;1.456;2024-01-27T14:15:05;24.00;99.90
15656;DHT22;7928;43.614;1.456;2024-01-27T14:17:33;24.90;99.90
15656;DHT22;7928;43.614;1.456;2024-01-27T14:20:01;25.60;99.90
15656;DHT22;7928;43.614;1.456;2024-01-27T14:22:29;26.70;99.90
15656;DHT22;7928;43.614;1.456;2024-01-27T14:24:58;27.90;99.90
15656;DHT22;7928;43.614;1.456;2024-01-27T14:27:25;28.50;99.90
15656;DHT22;7928;43.614;1.456;2024-01-27T14:29:53;29.00;99.90
15656;DHT22;7928;43.614;1.456;2024-01-27T14:32:20;29.30;99.10
15656;DHT22;7928;43.614;1.456;2024-01-27T14:34:47;29.70;97.60
15656;DHT22;7928;43.614;1.456;2024-01-27T14:37:14;29.70;96.30
15656;DHT22;7928;43.614;1.456;2024-01-27T14:39:42;29.50;95.90
15656;DHT22;7928;43.614;1.456;2024-01-27T14:42:12;29.60;95.60
15656;DHT22;7928;43.614;1.456;2024-01-27T14:44:39;29.30;95.00
15656;DHT22;7928;43.614;1.456;2024-01-27T14:47:08;29.70;94.70
15656;DHT22;7928;43.614;1.456;2024-01-27T14:49:35;30.10;93.80
15656;DHT22;7928;43.614;1.456;2024-01-27T14:52:04;30.20;93.60
15656;DHT22;7928;43.614;1.456;2024-01-27T14:54:32;30.00;93.00
15656;DHT22;7928;43.614;1.456;2024-01-27T14:56:59;29.20;93.10
15656;DHT22;7928;43.614;1.456;2024-01-27T14:59:28;28.70;93.30
15656;DHT22;7928;43.614;1.456;2024-01-27T15:01:55;28.30;93.40
15656;DHT22;7928;43.614;1.456;2024-01-27T15:04:23;28.60;93.80
15656;DHT22;7928;43.614;1.456;2024-01-27T15:06:52;28.80;93.70
15656;DHT22;7928;43.614;1.456;2024-01-27T15:09:19;29.80;92.70
15656;DHT22;7928;43.614;1.456;2024-01-27T15:11:46;30.20;92.10
15656;DHT22;7928;43.614;1.456;2024-01-27T15:14:13;30.00;91.80
15656;DHT22;7928;43.614;1.456;2024-01-27T15:16:41;30.10;91.60
15656;DHT22;7928;43.614;1.456;2024-01-27T15:19:08;29.50;91.60
15656;DHT22;7928;43.614;1.456;2024-01-27T15:21:35;28.80;92.10
15656;DHT22;7928;43.614;1.456;2024-01-27T15:24:03;28.70;92.20
15656;DHT22;7928;43.614;1.456;2024-01-27T15:26:30;28.70;92.30
15656;DHT22;7928;43.614;1.456;2024-01-27T15:28:57;28.30;92.30
15656;DHT22;7928;43.614;1.456;2024-01-27T15:31:24;28.10;92.60
15656;DHT22;7928;43.614;1.456;2024-01-27T15:33:53;28.20;92.80
15656;DHT22;7928;43.614;1.456;2024-01-27T15:36:20;27.90;92.40
15656;DHT22;7928;43.614;1.456;2024-01-27T15:38:47;26.20;93.30
15656;DHT22;7928;43.614;1.456;2024-01-27T15:41:14;25.00;95.00
15656;DHT22;7928;43.614;1.456;2024-01-27T15:43:44;25.00;95.40
15656;DHT22;7928;43.614;1.456;2024-01-27T15:46:13;25.30;95.10
15656;DHT22;7928;43.614;1.456;2024-01-27T15:48:40;23.20;96.00
15656;DHT22;7928;43.614;1.456;2024-01-27T15:51:08;21.70;98.40
15656;DHT22;7928;43.614;1.456;2024-01-27T15:53:35;20.10;99.90
15656;DHT22;7928;43.614;1.456;2024-01-27T15:56:03;18.90;99.90
15656;DHT22;7928;43.614;1.456;2024-01-27T15:58:31;19.50;99.90
15656;DHT22;7928;43.614;1.456;2024-01-27T16:00:58;20.20;99.90